Time;durP1;ratioP1;P1;durP2;ratioP2;P2;SDS_P1;SDS_P2;PMS_P1;PMS_P2;Temp;Humidity;BMP_temperature;BMP_pressure;BME280_temperature;BME280_humidity;BME280_pressure;Samples;Min_cycle;Max_cycle;Signal;HPM_P1;HPM_P2
2023/08/08 00:02:05;;;;;;;11.70;6.10;;;;;;;20.63;100.00;99624.02;105429;1257;60435;-66
2023/08/08 00:04:33;;;;;;;9.90;6.50;;;;;;;20.60;100.00;99627.77;105525;1257;60646;-61
2023/08/08 00:07:01;;;;;;;9.10;6.70;;;;;;;20.53;100.00;99631.43;105412;1257;73900;-66
2023/08/08 00:09:29;;;;;;;9.00;5.80;;;;;;;20.45;100.00;99633.73;105210;1263;66562;-61
2023/08/08 00:11:57;;;;;;;7.70;5.50;;;;;;;20.35;100.00;99637.84;105486;1258;71602;-67
2023/08/08 00:14:25;;;;;;;8.20;6.70;;;;;;;20.28;100.00;99637.52;105258;1256;60889;-61
2023/08/08 00:16:53;;;;;;;10.00;7.20;;;;;;;20.18;100.00;99635.27;105128;1262;60386;-61
2023/08/08 00:19:21;;;;;;;8.30;6.60;;;;;;;20.10;100.00;99634.23;105231;1257;74629;-62
2023/08/08 00:21:48;;;;;;;9.90;6.40;;;;;;;20.05;100.00;99636.55;105526;1257;66793;-66
2023/08/08 00:24:16;;;;;;;9.40;7.10;;;;;;;20.00;100.00;99640.73;105276;1258;72762;-62
2023/08/08 00:26:44;;;;;;;9.80;6.20;;;;;;;19.97;100.00;99644.57;105453;1262;60493;-61
2023/08/08 00:29:12;;;;;;;10.30;6.20;;;;;;;19.93;100.00;99642.81;105388;1263;61213;-63
2023/08/08 00:31:40;;;;;;;8.70;7.10;;;;;;;19.90;100.00;99647.56;105231;1257;72662;-61
2023/08/08 00:34:08;;;;;;;11.10;7.20;;;;;;;19.83;100.00;99644.36;104986;1261;65777;-62
2023/08/08 00:36:36;;;;;;;9.80;6.90;;;;;;;19.77;100.00;99642.75;105191;1262;71927;-63
2023/08/08 00:39:03;;;;;;;10.80;7.10;;;;;;;19.70;100.00;99642.34;105444;1258;61763;-67
2023/08/08 00:41:31;;;;;;;9.20;6.80;;;;;;;19.64;100.00;99643.38;105134;1261;60397;-63
2023/08/08 00:43:59;;;;;;;10.60;6.80;;;;;;;19.58;100.00;99644.28;105433;1257;72198;-64
2023/08/08 00:46:27;;;;;;;8.70;7.00;;;;;;;19.54;100.00;99646.42;105169;1256;66228;-62
2023/08/08 00:48:54;;;;;;;10.10;7.00;;;;;;;19.51;100.00;99648.53;105343;1260;71687;-62
2023/08/08 00:51:22;;;;;;;9.80;7.20;;;;;;;19.46;100.00;99649.55;105450;1260;60438;-65
2023/08/08 00:53:50;;;;;;;9.90;6.80;;;;;;;19.42;100.00;99644.25;105345;1258;60444;-67
2023/08/08 00:56:17;;;;;;;9.70;7.00;;;;;;;19.38;100.00;99648.55;105325;1256;73211;-63
2023/08/08 00:58:46;;;;;;;11.20;6.50;;;;;;;19.35;100.00;99649.90;105361;1262;66882;-64
2023/08/08 01:01:14;;;;;;;8.50;6.20;;;;;;;19.34;100.00;99654.30;105241;1258;72848;-62
2023/08/08 01:03:43;;;;;;;9.20;6.50;;;;;;;19.34;100.00;99658.89;105134;1270;60632;-62
2023/08/08 01:06:36;;;;;;;8.90;6.50;;;;;;;19.35;100.00;99663.55;105298;1261;60475;-64
2023/08/08 01:09:17;;;;;;;9.50;6.00;;;;;;;19.37;100.00;99661.09;105336;1258;73831;-67
2023/08/08 01:11:48;;;;;;;8.80;6.00;;;;;;;19.36;100.00;99664.23;105417;1257;65677;-67
2023/08/08 01:14:16;;;;;;;11.10;6.80;;;;;;;19.35;100.00;99664.02;105443;1258;73178;-63
2023/08/08 01:16:44;;;;;;;8.70;6.50;;;;;;;19.36;100.00;99664.73;105194;1263;60447;-62
2023/08/08 01:19:15;;;;;;;10.40;6.70;;;;;;;19.36;100.00;99667.17;105288;1255;60543;-63
2023/08/08 01:21:42;;;;;;;7.50;6.50;;;;;;;19.34;100.00;99668.73;105245;1257;74661;-62
2023/08/08 01:24:19;;;;;;;8.10;6.70;;;;;;;19.32;100.00;99669.81;105096;1262;65761;-62
2023/08/08 01:26:47;;;;;;;10.70;7.40;;;;;;;19.30;100.00;99673.92;105343;1260;72704;-64
2023/08/08 01:29:15;;;;;;;8.30;7.00;;;;;;;19.29;100.00;99681.70;105143;1262;60589;-67
2023/08/08 01:31:43;;;;;;;10.40;6.50;;;;;;;19.29;100.00;99687.04;105194;1257;60024;-62
2023/08/08 01:34:10;;;;;;;9.90;7.10;;;;;;;19.30;100.00;99689.84;105340;1262;73907;-62
2023/08/08 01:36:59;;;;;;;8.60;6.90;;;;;;;19.30;100.00;99689.84;105239;1256;65842;-64
2023/08/08 01:39:27;;;;;;;8.60;7.20;;;;;;;19.28;100.00;99692.85;105277;1258;73485;-62
2023/08/08 01:41:55;;;;;;;12.30;7.80;;;;;;;19.23;100.00;99692.38;105412;1257;60543;-62
2023/08/08 01:44:24;;;;;;;9.90;7.60;;;;;;;19.20;100.00;99696.90;105474;1256;60539;-67
2023/08/08 01:46:53;;;;;;;8.70;7.10;;;;;;;19.17;100.00;99701.16;105258;1257;72650;-62
2023/08/08 01:49:20;;;;;;;9.10;6.60;;;;;;;19.15;100.00;99703.90;105364;1256;67364;-67
2023/08/08 01:51:50;;;;;;;9.40;7.20;;;;;;;19.09;100.00;99711.83;105167;1262;71507;-62
2023/08/08 01:54:19;;;;;;;9.70;7.80;;;;;;;19.06;100.00;99712.13;105800;1261;60540;-62
2023/08/08 01:56:47;;;;;;;13.00;7.60;;;;;;;18.99;100.00;99717.23;105292;1256;60535;-62
2023/08/08 01:59:15;;;;;;;10.00;7.80;;;;;;;18.90;100.00;99717.95;105274;1259;72648;-66
2023/08/08 02:01:43;;;;;;;10.50;6.60;;;;;;;18.85;100.00;99722.41;105229;1262;68091;-62
2023/08/08 02:04:10;;;;;;;10.20;7.00;;;;;;;18.80;100.00;99724.21;105204;1257;72724;-61
2023/08/08 02:06:38;;;;;;;11.30;6.90;;;;;;;18.77;100.00;99727.98;105267;1264;60468;-66
2023/08/08 02:09:06;;;;;;;11.30;8.10;;;;;;;18.79;100.00;99729.14;105090;1257;60426;-62
2023/08/08 02:11:34;;;;;;;8.50;7.30;;;;;;;18.80;100.00;99728.80;105386;1259;74909;-62
2023/08/08 02:14:02;;;;;;;9.80;6.80;;;;;;;18.82;100.00;99727.39;105350;1262;65753;-62
2023/08/08 02:16:30;;;;;;;10.40;7.00;;;;;;;18.85;100.00;99722.61;105232;1262;72742;-62
2023/08/08 02:18:58;;;;;;;8.20;7.20;;;;;;;18.87;100.00;99720.52;105497;1258;61721;-64
2023/08/08 02:21:26;;;;;;;11.30;6.50;;;;;;;18.90;100.00;99722.92;105382;1262;60444;-61
2023/08/08 02:23:54;;;;;;;10.10;6.80;;;;;;;18.93;100.00;99719.56;105228;1262;73855;-63
2023/08/08 02:26:22;;;;;;;10.30;7.40;;;;;;;18.97;100.00;99718.38;105377;1262;66925;-62
2023/08/08 02:28:50;;;;;;;9.90;6.30;;;;;;;19.01;100.00;99721.02;105363;1258;71321;-62
2023/08/08 02:31:20;;;;;;;7.60;5.90;;;;;;;19.10;100.00;99718.59;105203;1257;61808;-63
2023/08/08 02:33:50;;;;;;;8.40;6.70;;;;;;;19.15;100.00;99719.86;105342;1256;60853;-61
2023/08/08 02:36:18;;;;;;;10.60;6.90;;;;;;;19.22;100.00;99721.80;105331;1256;73924;-62
2023/08/08 02:38:46;;;;;;;9.30;7.00;;;;;;;19.27;100.00;99720.05;105382;1256;65739;-63
2023/08/08 02:41:13;;;;;;;10.50;7.90;;;;;;;19.31;100.00;99720.81;105568;1261;73187;-66
2023/08/08 02:43:42;;;;;;;10.70;7.90;;;;;;;19.32;100.00;99724.45;105136;1256;60939;-63
2023/08/08 02:46:10;;;;;;;12.90;8.90;;;;;;;19.32;100.00;99726.31;105247;1257;60518;-62
2023/08/08 02:48:37;;;;;;;15.60;11.20;;;;;;;19.34;100.00;99727.56;105402;1257;73945;-63
2023/08/08 02:51:05;;;;;;;12.70;8.70;;;;;;;19.37;100.00;99729.16;105658;1262;65708;-65
2023/08/08 02:53:33;;;;;;;13.40;8.70;;;;;;;19.37;100.00;99733.61;105158;1262;73218;-64
2023/08/08 02:56:01;;;;;;;12.40;9.10;;;;;;;19.39;100.00;99740.75;105287;1263;61019;-63
2023/08/08 02:58:31;;;;;;;22.40;13.00;;;;;;;19.42;100.00;99737.55;105220;1256;60547;-62
2023/08/08 03:00:59;;;;;;;34.10;17.70;;;;;;;19.49;100.00;99741.51;105579;1256;72655;-66
2023/08/08 03:03:27;;;;;;;18.80;12.40;;;;;;;19.55;100.00;99745.30;105115;1257;66980;-62
2023/08/08 03:05:55;;;;;;;14.00;10.50;;;;;;;19.64;100.00;99748.56;105545;1257;72524;-63
2023/08/08 03:08:23;;;;;;;29.10;16.30;;;;;;;19.89;100.00;99742.83;105260;1256;60522;-62
2023/08/08 03:10:51;;;;;;;21.90;12.30;;;;;;;20.29;100.00;99747.72;105284;1259;60633;-63
2023/08/08 03:13:22;;;;;;;18.10;10.20;;;;;;;20.81;100.00;99750.84;105323;1259;74931;-65
2023/08/08 03:15:51;;;;;;;11.90;9.20;;;;;;;21.35;100.00;99747.02;105362;1257;67057;-62
2023/08/08 03:18:18;;;;;;;12.80;9.00;;;;;;;21.73;100.00;99743.38;105346;1262;73819;-63
2023/08/08 03:20:47;;;;;;;11.30;7.90;;;;;;;21.99;100.00;99733.90;105276;1257;60479;-65
2023/08/08 03:23:16;;;;;;;9.10;7.40;;;;;;;22.36;100.00;99736.21;105465;1257;60480;-64
2023/08/08 03:25:44;;;;;;;10.50;8.20;;;;;;;22.85;100.00;99732.15;105409;1257;72508;-63
2023/08/08 03:28:12;;;;;;;8.60;6.70;;;;;;;23.59;100.00;99725.14;105362;1257;67872;-62
2023/08/08 03:30:40;;;;;;;7.40;5.90;;;;;;;24.47;100.00;99705.84;105055;1260;71637;-63
2023/08/08 03:33:08;;;;;;;9.80;6.70;;;;;;;25.48;100.00;99695.04;105213;1261;60492;-63
2023/08/08 03:35:37;;;;;;;7.70;6.50;;;;;;;26.55;100.00;99678.47;105411;1261;60457;-63
2023/08/08 03:38:05;;;;;;;8.70;6.70;;;;;;;27.60;100.00;99676.65;105416;1262;73911;-63
2023/08/08 03:40:33;;;;;;;9.90;6.80;;;;;;;28.62;100.00;99675.34;105371;1256;65747;-63
2023/08/08 03:43:01;;;;;;;7.50;6.10;;;;;;;29.60;100.00;99673.84;105714;1257;71374;-65
2023/08/08 03:45:29;;;;;;;10.50;7.60;;;;;;;30.52;100.00;99677.36;105166;1257;60618;-63
2023/08/08 03:47:57;;;;;;;9.40;5.50;;;;;;;31.34;100.00;99681.05;105092;1257;60632;-63
2023/08/08 03:50:25;;;;;;;7.00;5.20;;;;;;;31.97;100.00;99683.58;105507;1258;72657;-63
2023/08/08 03:52:53;;;;;;;6.90;4.80;;;;;;;32.48;100.00;99682.48;105464;1256;65969;-63
2023/08/08 03:55:20;;;;;;;5.50;4.90;;;;;;;33.12;100.00;99682.78;105223;1262;73187;-63
2023/08/08 03:57:49;;;;;;;7.10;5.10;;;;;;;33.77;99.94;99682.79;105347;1263;60545;-61
2023/08/08 04:00:17;;;;;;;6.70;4.60;;;;;;;34.44;94.42;99687.52;108885;1255;58796;-62
2023/08/08 04:02:44;;;;;;;8.50;6.10;;;;;;;35.04;83.42;99684.69;108887;1255;73906;-62
2023/08/08 04:05:12;;;;;;;11.30;5.40;;;;;;;35.55;74.94;99689.92;108928;1257;58213;-66
2023/08/08 04:07:40;;;;;;;6.00;5.10;;;;;;;36.04;67.66;99690.39;108849;1256;70870;-61
2023/08/08 04:10:08;;;;;;;6.30;4.50;;;;;;;36.42;61.96;99691.63;108929;1256;58864;-62
2023/08/08 04:12:36;;;;;;;6.00;5.10;;;;;;;36.76;56.39;99693.94;108897;1255;58153;-62
2023/08/08 04:15:04;;;;;;;5.60;4.70;;;;;;;36.98;53.36;99695.48;108895;1255;65033;-63
2023/08/08 04:17:32;;;;;;;5.30;4.30;;;;;;;37.23;52.52;99698.17;108813;1255;59192;-66
2023/08/08 04:20:00;;;;;;;6.50;5.40;;;;;;;37.60;50.00;99700.39;108915;1256;63756;-62
2023/08/08 04:22:27;;;;;;;6.40;5.40;;;;;;;37.95;47.82;99707.85;108789;1255;58713;-63
2023/08/08 04:24:55;;;;;;;5.30;4.70;;;;;;;38.35;46.39;99711.29;108894;1255;58530;-63
2023/08/08 04:27:22;;;;;;;5.20;4.00;;;;;;;38.80;44.86;99711.34;108879;1256;64992;-63
2023/08/08 04:29:50;;;;;;;4.40;3.80;;;;;;;39.30;42.40;99711.47;108832;1255;58430;-63
2023/08/08 04:32:18;;;;;;;5.00;3.90;;;;;;;39.81;40.89;99713.66;108896;1256;63829;-62
2023/08/08 04:34:45;;;;;;;4.80;4.20;;;;;;;40.28;38.63;99715.38;108819;1256;58240;-62
2023/08/08 04:37:13;;;;;;;4.30;3.90;;;;;;;40.48;37.49;99717.78;108911;1255;58468;-62
2023/08/08 04:39:40;;;;;;;6.80;4.50;;;;;;;40.68;36.74;99720.42;108858;1255;64939;-63
2023/08/08 04:42:08;;;;;;;5.90;3.40;;;;;;;40.83;36.05;99717.12;108959;1255;58959;-62
2023/08/08 04:44:36;;;;;;;5.30;4.30;;;;;;;40.75;35.61;99718.89;108914;1256;63770;-62
2023/08/08 04:47:04;;;;;;;7.90;4.00;;;;;;;40.34;36.06;99722.38;108951;1255;58178;-61
2023/08/08 04:49:31;;;;;;;7.70;4.50;;;;;;;40.12;36.81;99722.31;108917;1255;58589;-62
2023/08/08 04:51:59;;;;;;;4.80;3.80;;;;;;;40.01;38.05;99721.33;108814;1256;65039;-62
2023/08/08 04:54:27;;;;;;;5.20;3.80;;;;;;;40.22;38.19;99721.80;108933;1255;58693;-61
2023/08/08 04:56:54;;;;;;;5.50;4.00;;;;;;;40.63;36.99;99723.02;108935;1255;62538;-61
2023/08/08 04:59:23;;;;;;;4.80;4.20;;;;;;;41.03;35.79;99724.41;108886;1256;58713;-61
2023/08/08 05:01:50;;;;;;;5.00;4.50;;;;;;;41.13;34.93;99723.95;108912;1255;58166;-65
2023/08/08 05:04:18;;;;;;;6.80;4.60;;;;;;;41.17;34.47;99721.41;108862;1256;65046;-61
2023/08/08 05:06:46;;;;;;;4.90;4.20;;;;;;;41.08;34.26;99723.27;108924;1256;58508;-62
2023/08/08 05:09:13;;;;;;;4.30;3.70;;;;;;;41.10;34.16;99723.56;108895;1256;63773;-61
2023/08/08 05:11:41;;;;;;;5.00;4.40;;;;;;;41.36;33.85;99722.96;108879;1257;58730;-65
2023/08/08 05:14:09;;;;;;;4.40;4.00;;;;;;;41.63;33.27;99723.35;108838;1256;58701;-63
2023/08/08 05:16:36;;;;;;;5.00;3.80;;;;;;;41.86;33.05;99722.88;108909;1256;64974;-61
2023/08/08 05:19:04;;;;;;;4.40;3.80;;;;;;;42.15;32.32;99716.27;108903;1255;58212;-62
2023/08/08 05:21:32;;;;;;;6.10;4.20;;;;;;;42.41;31.78;99721.48;108872;1255;63825;-65
2023/08/08 05:23:59;;;;;;;6.10;4.00;;;;;;;42.63;31.33;99723.61;108834;1256;58821;-62
2023/08/08 05:26:27;;;;;;;6.20;4.40;;;;;;;42.86;30.60;99728.23;108966;1255;58158;-61
2023/08/08 05:28:55;;;;;;;5.90;4.50;;;;;;;43.04;30.13;99725.45;108950;1255;63609;-62
2023/08/08 05:31:22;;;;;;;5.90;4.20;;;;;;;43.25;29.81;99726.52;108904;1256;58155;-61
2023/08/08 05:33:50;;;;;;;6.20;4.80;;;;;;;43.40;29.30;99729.09;108855;1256;62513;-63
2023/08/08 05:36:17;;;;;;;4.40;4.00;;;;;;;43.44;29.17;99729.63;108938;1259;58149;-61
2023/08/08 05:38:45;;;;;;;5.10;4.40;;;;;;;43.42;28.96;99728.09;108912;1256;58867;-61
2023/08/08 05:41:12;;;;;;;4.20;3.50;;;;;;;43.36;28.82;99731.11;108930;1255;65052;-61
2023/08/08 05:43:40;;;;;;;5.90;4.30;;;;;;;43.35;28.75;99732.38;108901;1256;58604;-63
2023/08/08 05:46:08;;;;;;;4.80;4.30;;;;;;;43.26;28.66;99736.14;108860;1256;64391;-62
2023/08/08 05:48:36;;;;;;;8.80;4.70;;;;;;;43.08;28.92;99736.58;108888;1255;58222;-62
2023/08/08 05:51:05;;;;;;;4.50;4.10;;;;;;;42.85;28.95;99740.77;108923;1255;58516;-61
2023/08/08 05:53:32;;;;;;;4.50;4.00;;;;;;;42.45;29.49;99741.20;108872;1255;65265;-63
2023/08/08 05:56:00;;;;;;;4.60;4.20;;;;;;;42.34;30.08;99746.03;108866;1257;58825;-61
2023/08/08 05:58:28;;;;;;;4.30;3.90;;;;;;;42.45;29.87;99748.60;108852;1256;71791;-62
2023/08/08 06:00:55;;;;;;;5.00;4.00;;;;;;;42.26;29.94;99751.04;108824;1255;58237;-61
2023/08/08 06:03:23;;;;;;;4.50;4.10;;;;;;;42.01;30.53;99748.67;108931;1255;58394;-64
2023/08/08 06:05:51;;;;;;;5.10;4.60;;;;;;;42.00;31.01;99746.58;108883;1256;67255;-61
2023/08/08 06:08:18;;;;;;;4.50;3.90;;;;;;;42.00;30.89;99747.74;108894;1255;58355;-64
2023/08/08 06:10:46;;;;;;;4.50;4.20;;;;;;;41.78;31.61;99747.73;108898;1255;63932;-62
2023/08/08 06:13:14;;;;;;;4.50;4.10;;;;;;;41.85;31.99;99748.61;108903;1255;58703;-61
2023/08/08 06:15:41;;;;;;;6.70;3.80;;;;;;;42.02;31.86;99744.98;108901;1255;58275;-61
2023/08/08 06:18:09;;;;;;;4.80;4.30;;;;;;;42.02;31.68;99745.77;108959;1256;65038;-60
2023/08/08 06:20:37;;;;;;;4.70;4.30;;;;;;;42.07;31.07;99743.27;108891;1255;58384;-63
2023/08/08 06:23:05;;;;;;;5.80;3.90;;;;;;;42.11;30.86;99745.81;108905;1256;63835;-61
2023/08/08 06:25:33;;;;;;;5.10;3.80;;;;;;;42.16;30.99;99741.46;108801;1255;58245;-64
2023/08/08 06:28:00;;;;;;;4.70;4.30;;;;;;;42.24;31.13;99742.14;109010;1255;58141;-61
2023/08/08 06:30:28;;;;;;;5.30;3.50;;;;;;;42.40;30.79;99743.91;108920;1256;65025;-65
2023/08/08 06:32:55;;;;;;;5.10;3.80;;;;;;;42.52;30.72;99741.16;108938;1256;58667;-63
2023/08/08 06:35:23;;;;;;;4.30;3.90;;;;;;;42.65;30.23;99739.66;108862;1255;62617;-66
2023/08/08 06:37:51;;;;;;;7.40;4.20;;;;;;;42.63;29.93;99742.73;108866;1255;58638;-61
2023/08/08 06:40:18;;;;;;;3.90;3.30;;;;;;;42.50;30.04;99742.91;108896;1255;58663;-65
2023/08/08 06:42:46;;;;;;;4.60;3.40;;;;;;;42.50;30.58;99744.25;108860;1257;64364;-62
2023/08/08 06:45:14;;;;;;;3.40;3.10;;;;;;;42.54;30.44;99745.12;108931;1256;58763;-61
2023/08/08 06:47:41;;;;;;;4.40;3.40;;;;;;;42.45;30.60;99744.46;108859;1255;62604;-61
2023/08/08 06:50:09;;;;;;;4.30;3.80;;;;;;;42.36;30.51;99746.70;108912;1255;58534;-61
2023/08/08 06:52:37;;;;;;;4.10;3.60;;;;;;;42.31;30.63;99742.38;108894;1256;58390;-63
2023/08/08 06:55:05;;;;;;;5.30;3.80;;;;;;;42.41;30.50;99744.98;108938;1255;65008;-62
2023/08/08 06:57:33;;;;;;;4.70;3.20;;;;;;;42.50;30.73;99747.52;108856;1256;58400;-65
2023/08/08 07:00:04;;;;;;;4.80;3.60;;;;;;;42.52;30.66;99746.02;108958;1256;63813;-62
2023/08/08 07:02:32;;;;;;;4.40;3.50;;;;;;;42.59;30.67;99746.46;108812;1255;58527;-63
2023/08/08 07:05:00;;;;;;;4.30;3.90;;;;;;;42.62;30.85;99746.89;108816;1255;204531;-64
2023/08/08 07:07:30;;;;;;;4.90;3.80;;;;;;;42.76;30.99;99746.63;108936;1255;65188;-62
2023/08/08 07:09:57;;;;;;;3.60;3.30;;;;;;;42.91;30.87;99749.48;108932;1255;68209;-62
2023/08/08 07:12:25;;;;;;;4.30;3.60;;;;;;;43.06;30.40;99751.77;108939;1256;63872;-62
2023/08/08 07:14:53;;;;;;;4.00;3.40;;;;;;;43.11;30.08;99754.41;108892;1257;58207;-61
2023/08/08 07:17:20;;;;;;;4.20;3.80;;;;;;;43.16;30.06;99754.34;108958;1255;58738;-62
2023/08/08 07:19:48;;;;;;;5.10;3.50;;;;;;;43.18;29.78;99748.11;108911;1256;65009;-65
2023/08/08 07:22:16;;;;;;;4.80;3.60;;;;;;;43.07;29.51;99745.08;108981;1255;58318;-61
2023/08/08 07:24:43;;;;;;;3.80;3.50;;;;;;;42.91;29.96;99747.35;108853;1256;63831;-62
2023/08/08 07:27:11;;;;;;;3.60;3.30;;;;;;;42.84;29.69;99744.55;108878;1256;58166;-61
2023/08/08 07:29:39;;;;;;;3.70;3.30;;;;;;;42.61;29.69;99744.40;108900;1256;58608;-63
2023/08/08 07:32:07;;;;;;;4.10;3.60;;;;;;;42.36;30.01;99745.45;108914;1256;65782;-61
2023/08/08 07:34:35;;;;;;;3.40;2.80;;;;;;;42.17;30.34;99745.05;108916;1256;58616;-61
2023/08/08 07:37:03;;;;;;;3.80;3.40;;;;;;;42.06;31.11;99745.17;108867;1256;63849;-62
2023/08/08 07:39:31;;;;;;;4.50;3.30;;;;;;;42.06;31.34;99749.77;108920;1256;58492;-62
2023/08/08 07:41:59;;;;;;;4.60;3.10;;;;;;;42.09;31.22;99752.65;108909;1255;58610;-62
2023/08/08 07:44:27;;;;;;;4.90;3.20;;;;;;;42.22;30.44;99747.27;108924;1255;63746;-61
2023/08/08 07:46:54;;;;;;;3.60;3.30;;;;;;;42.32;30.13;99745.11;108909;1255;58402;-63
2023/08/08 07:49:23;;;;;;;4.00;3.30;;;;;;;42.38;30.06;99746.37;108896;1255;64211;-61
2023/08/08 07:51:50;;;;;;;4.50;3.40;;;;;;;42.43;29.95;99748.09;108881;1255;58180;-63
2023/08/08 07:54:18;;;;;;;4.20;3.30;;;;;;;42.33;29.30;99744.70;108974;1256;58093;-61
2023/08/08 07:56:45;;;;;;;3.60;3.30;;;;;;;41.93;29.38;99746.33;108970;1256;65014;-61
2023/08/08 07:59:13;;;;;;;3.40;2.90;;;;;;;41.69;30.02;99748.36;108862;1257;59196;-61
2023/08/08 08:01:41;;;;;;;3.50;2.90;;;;;;;41.62;30.27;99750.71;108905;1255;62558;-62
2023/08/08 08:04:09;;;;;;;4.70;3.20;;;;;;;41.60;30.63;99748.77;108894;1256;58176;-62
2023/08/08 08:06:36;;;;;;;3.80;3.00;;;;;;;41.70;30.44;99744.05;108982;1256;58078;-62
2023/08/08 08:09:05;;;;;;;3.60;2.60;;;;;;;41.77;29.82;99743.59;108919;1257;65363;-63
2023/08/08 08:11:32;;;;;;;3.00;2.70;;;;;;;41.76;29.22;99742.98;108936;1256;58332;-62
2023/08/08 08:14:00;;;;;;;3.00;2.30;;;;;;;41.60;28.46;99741.66;108820;1259;63813;-63
2023/08/08 08:16:28;;;;;;;2.90;2.60;;;;;;;41.40;28.49;99741.20;108886;1256;58397;-62
2023/08/08 08:18:56;;;;;;;3.40;2.60;;;;;;;41.40;28.43;99737.08;108872;1256;58565;-64
2023/08/08 08:21:24;;;;;;;3.50;2.30;;;;;;;41.43;28.60;99739.41;108852;1256;65183;-63
2023/08/08 08:23:52;;;;;;;2.30;1.90;;;;;;;41.48;28.36;99736.08;108890;1256;58591;-64
2023/08/08 08:26:19;;;;;;;3.00;2.10;;;;;;;41.56;27.81;99737.79;108889;1256;62536;-62
2023/08/08 08:28:47;;;;;;;2.10;1.80;;;;;;;41.62;27.56;99733.27;108851;1256;58713;-63
2023/08/08 08:31:14;;;;;;;2.10;1.70;;;;;;;41.65;27.06;99728.56;108884;1256;58427;-66
2023/08/08 08:33:43;;;;;;;5.70;1.70;;;;;;;41.63;26.60;99729.44;108855;1256;63719;-63
2023/08/08 08:36:10;;;;;;;2.40;1.80;;;;;;;41.56;26.64;99728.50;108831;1256;58365;-64
2023/08/08 08:38:40;;;;;;;3.20;1.90;;;;;;;41.38;26.96;99731.46;108874;1256;63755;-63
2023/08/08 08:41:08;;;;;;;2.10;1.70;;;;;;;41.31;27.43;99725.41;108885;1256;58171;-63
2023/08/08 08:43:36;;;;;;;2.60;2.10;;;;;;;41.23;27.64;99725.89;108762;1256;58254;-64
2023/08/08 08:46:04;;;;;;;3.30;2.20;;;;;;;41.16;27.79;99728.13;108803;1256;65039;-66
2023/08/08 08:48:32;;;;;;;5.20;2.00;;;;;;;41.17;28.20;99725.39;108828;1256;58251;-63
2023/08/08 08:50:59;;;;;;;2.70;1.60;;;;;;;41.20;27.82;99724.44;108855;1256;63870;-63
2023/08/08 08:53:27;;;;;;;3.80;1.60;;;;;;;41.28;26.89;99721.23;108856;1256;58152;-63
2023/08/08 08:55:57;;;;;;;2.40;1.70;;;;;;;41.34;27.05;99722.04;108890;1256;58208;-63
2023/08/08 08:58:24;;;;;;;3.70;1.90;;;;;;;41.38;27.48;99719.20;108863;1256;65098;-60
2023/08/08 09:00:52;;;;;;;2.50;1.50;;;;;;;41.40;27.10;99715.56;108888;1256;65482;-60
2023/08/08 09:03:19;;;;;;;3.20;1.70;;;;;;;41.45;26.85;99714.92;108813;1256;63762;-61
2023/08/08 09:05:48;;;;;;;1.90;1.50;;;;;;;41.43;26.90;99708.08;108836;1256;58237;-61
2023/08/08 09:08:15;;;;;;;2.70;1.60;;;;;;;41.37;27.03;99707.72;108788;1256;58367;-64
2023/08/08 09:10:43;;;;;;;1.90;1.50;;;;;;;41.39;26.97;99702.30;108823;1256;65009;-60
2023/08/08 09:13:11;;;;;;;2.60;1.70;;;;;;;41.44;26.76;99695.33;108894;1256;58712;-59
2023/08/08 09:15:39;;;;;;;1.80;1.40;;;;;;;41.49;26.38;99693.61;108852;1256;63685;-63
2023/08/08 09:18:07;;;;;;;1.60;1.30;;;;;;;41.55;26.41;99692.85;108827;1259;58760;-66
2023/08/08 09:20:35;;;;;;;2.20;1.40;;;;;;;41.59;26.09;99697.03;108914;1256;58163;-64
2023/08/08 09:23:03;;;;;;;4.40;1.80;;;;;;;41.49;25.30;99696.74;108898;1256;65207;-63
2023/08/08 09:25:30;;;;;;;7.00;1.70;;;;;;;41.23;25.39;99694.31;108855;1257;58549;-65
2023/08/08 09:27:58;;;;;;;2.50;1.30;;;;;;;41.03;25.63;99695.59;108822;1256;63219;-63
2023/08/08 09:30:26;;;;;;;2.00;1.40;;;;;;;40.92;26.09;99691.20;108799;1259;58148;-63
2023/08/08 09:32:53;;;;;;;1.90;1.30;;;;;;;40.88;26.47;99690.91;108901;1256;58716;-62
2023/08/08 09:35:23;;;;;;;3.20;1.60;;;;;;;40.94;25.66;99693.69;108895;1256;76058;-63
2023/08/08 09:37:53;;;;;;;2.30;1.70;;;;;;;40.85;25.49;99691.26;108867;1256;58313;-62
2023/08/08 09:40:22;;;;;;;2.80;1.60;;;;;;;40.79;25.79;99688.09;108815;1256;63848;-62
2023/08/08 09:42:53;;;;;;;2.70;1.20;;;;;;;40.69;26.00;99689.34;108888;1256;58247;-62
2023/08/08 09:45:22;;;;;;;3.80;1.40;;;;;;;40.63;26.17;99694.07;108968;1256;58270;-62
2023/08/08 09:47:53;;;;;;;2.90;2.40;;;;;;;40.73;26.33;99695.48;108835;1256;67045;-63
2023/08/08 09:50:21;;;;;;;4.10;1.50;;;;;;;40.93;26.40;99693.30;108841;1256;60450;-62
2023/08/08 09:52:49;;;;;;;2.40;1.50;;;;;;;41.20;26.22;99692.07;108851;1256;74962;-63
2023/08/08 09:55:16;;;;;;;3.00;1.40;;;;;;;41.22;25.68;99697.38;108823;1257;58659;-62
2023/08/08 09:57:44;;;;;;;1.70;1.10;;;;;;;41.01;25.72;99695.37;108857;1256;58087;-64
2023/08/08 10:00:15;;;;;;;1.60;1.30;;;;;;;40.92;25.87;99698.00;108773;1256;67350;-64
2023/08/08 10:02:45;;;;;;;1.90;1.40;;;;;;;40.94;25.89;99699.23;108947;1256;58851;-63
2023/08/08 10:05:14;;;;;;;4.40;1.20;;;;;;;40.90;25.74;99698.64;108979;1256;65929;-62
2023/08/08 10:07:41;;;;;;;4.20;1.40;;;;;;;41.00;25.85;99698.89;108874;1256;62013;-62
2023/08/08 10:10:09;;;;;;;5.00;1.50;;;;;;;41.08;25.79;99699.61;108906;1255;58164;-64
2023/08/08 10:12:38;;;;;;;2.90;1.50;;;;;;;41.16;25.96;99697.73;108803;1255;67103;-62
2023/08/08 10:15:07;;;;;;;2.30;1.60;;;;;;;41.27;25.65;99698.02;108923;1256;58276;-66
2023/08/08 10:17:37;;;;;;;2.30;1.60;;;;;;;41.24;25.80;99696.34;108985;1256;63805;-62
2023/08/08 10:20:11;;;;;;;3.70;1.60;;;;;;;41.20;25.62;99691.14;108941;1256;58624;-63
2023/08/08 10:22:44;;;;;;;3.80;1.50;;;;;;;41.10;25.81;99690.45;108960;1256;58422;-63
2023/08/08 10:25:19;;;;;;;2.30;1.50;;;;;;;41.06;25.63;99695.33;108927;1256;63698;-63
2023/08/08 10:27:47;;;;;;;2.70;1.60;;;;;;;41.06;25.67;99695.01;108908;1255;60557;-62
2023/08/08 10:30:15;;;;;;;1.70;1.20;;;;;;;40.98;25.78;99692.48;108845;1256;62501;-64
2023/08/08 10:32:46;;;;;;;2.20;1.60;;;;;;;41.00;25.92;99692.32;108900;1257;58173;-63
2023/08/08 10:35:14;;;;;;;1.80;1.40;;;;;;;41.09;25.88;99693.27;108976;1255;58088;-63
2023/08/08 10:37:51;;;;;;;2.80;1.80;;;;;;;41.20;25.87;99695.84;108833;1259;65061;-63
2023/08/08 10:40:19;;;;;;;1.90;1.40;;;;;;;41.38;25.41;99696.53;108938;1256;58228;-63
2023/08/08 10:42:47;;;;;;;2.60;1.40;;;;;;;41.50;25.19;99694.39;108964;1255;62447;-63
2023/08/08 10:45:15;;;;;;;2.50;1.50;;;;;;;41.58;25.08;99697.20;108835;1256;58715;-67
2023/08/08 10:47:44;;;;;;;2.00;1.40;;;;;;;41.60;24.90;99694.59;108910;1256;58786;-65
2023/08/08 10:50:14;;;;;;;2.10;1.50;;;;;;;41.56;25.04;99695.17;108877;1256;65134;-62
2023/08/08 10:52:53;;;;;;;2.70;1.50;;;;;;;41.66;24.50;99693.61;108952;1256;66982;-63
2023/08/08 10:55:26;;;;;;;3.10;1.40;;;;;;;41.69;23.87;99687.61;108908;1256;74952;-63
2023/08/08 10:57:55;;;;;;;1.90;1.20;;;;;;;41.62;24.02;99690.20;108884;1256;58413;-64
2023/08/08 11:00:25;;;;;;;2.50;1.70;;;;;;;41.54;24.67;99691.38;108911;1255;58764;-63
2023/08/08 11:02:53;;;;;;;2.90;1.50;;;;;;;41.33;25.01;99690.16;108930;1256;63707;-66
2023/08/08 11:05:21;;;;;;;2.30;1.40;;;;;;;41.39;24.96;99693.78;108972;1256;59134;-63
2023/08/08 11:07:49;;;;;;;2.90;1.50;;;;;;;41.57;24.99;99696.04;108853;1255;63935;-63
2023/08/08 11:10:17;;;;;;;2.60;1.60;;;;;;;41.64;24.93;99693.31;108935;1255;58182;-63
2023/08/08 11:12:59;;;;;;;2.30;1.60;;;;;;;41.68;25.07;99696.39;108999;1256;58466;-67
2023/08/08 11:15:27;;;;;;;2.40;1.80;;;;;;;41.42;24.89;99691.56;108854;1260;73010;-64
2023/08/08 11:17:56;;;;;;;2.00;1.50;;;;;;;41.19;25.35;99692.63;108982;1256;58596;-63
2023/08/08 11:20:24;;;;;;;2.90;1.80;;;;;;;41.23;25.19;99691.52;108957;1257;63831;-64
2023/08/08 11:22:55;;;;;;;2.00;1.40;;;;;;;41.28;25.12;99690.98;108929;1256;58566;-68
2023/08/08 11:25:25;;;;;;;1.60;1.40;;;;;;;41.29;24.78;99688.47;108963;1255;58507;-63
2023/08/08 11:27:53;;;;;;;3.20;1.50;;;;;;;41.24;24.74;99688.45;108833;1255;65485;-63